Pagrindinis puslapis
METAR-TAF:

METAR-TAF

Oro uostai :

Linšiopingas, Švedija

platuma: 58-24N, ilguma: 015-41E, Aukštis: 52 m

Dabartinis oras

Ataskaita buvo paskelbta 35 minutes, ne 03:50 UTC
Vėjas 12 kt iš Vakarų/Pietvakarių, svyruoja nuo Pietvakarių ir Vakarų
Temperatūra 4°C
Drėgmė 81%
Slėgis 995 hPa
Matomumas 10 km arba daugiau

METAR: ESSL 020350Z AUTO 25012KT 220V280 9999 NCD 04/01 Q0995

Laikas: 06:25 (04:25 UTC)

Prognozė

Ataskaita buvo paskelbta 55 minutes, ne 03:30 UTC
Prognozė galioja nuo 02 metu 04 UTC su 02 metu 12 UTC
Vėjas 11 kt iš Vakarų su gūsio iki 23 kt
Matomumas 10 km arba daugiau
nėra debesų žemiau 1500 m ir nėra kamuolinių lietaus debesų
Tapsmas
nuo 02 metu 07 UTC su 02 metu 09 UTC
Vėjas 18 kt iš Vakarų/Pietvakarių su gūsio iki 35 kt

TAF: ESSL 020330Z 0204/0212 26011G23KT CAVOK BECMG 0207/0209 25018G35KT

Orai ataskaitas ir orų prognozės (METAR, TAF).

turimą stotys yra geltonos ir raudonos taškus žemėlapyje.

Perkelti pele per norėdami pamatyti stoties vardą.

Tada spustelėkite, norėdami matyti oro stebėjimo ir prognozės.

Norėdami pakeisti žemėlapį: spustelėkite ant žalios mygtukų su juodo kryžiaus žemyn,; žalią mygtuką su brūkšneliu, jei norite nutolinti; arba žalių rodyklių gretimoms žemėlapius.


METAR-TAF: